sensor_id;sensor_type;location;lat;lon;timestamp;temperature;humidity
39665;DHT22;26679;50.872;4.332;2023-04-02T00:00:19;10.10;99.90
39665;DHT22;26679;50.872;4.332;2023-04-02T00:05:26;10.00;99.90
39665;DHT22;26679;50.872;4.332;2023-04-02T00:08:02;9.90;99.90
39665;DHT22;26679;50.872;4.332;2023-04-02T00:10:32;10.00;99.90
39665;DHT22;26679;50.872;4.332;2023-04-02T00:15:25;9.80;99.90
39665;DHT22;26679;50.872;4.332;2023-04-02T00:17:50;9.80;99.90
39665;DHT22;26679;50.872;4.332;2023-04-02T00:20:16;9.70;99.90
39665;DHT22;26679;50.872;4.332;2023-04-02T00:22:43;9.50;99.90
39665;DHT22;26679;50.872;4.332;2023-04-02T00:25:11;9.60;99.90
39665;DHT22;26679;50.872;4.332;2023-04-02T00:27:37;9.60;99.90
39665;DHT22;26679;50.872;4.332;2023-04-02T00:30:03;9.60;99.90
39665;DHT22;26679;50.872;4.332;2023-04-02T00:32:32;9.60;99.90
39665;DHT22;26679;50.872;4.332;2023-04-02T00:34:59;9.60;99.90
39665;DHT22;26679;50.872;4.332;2023-04-02T00:37:29;9.60;99.90
39665;DHT22;26679;50.872;4.332;2023-04-02T00:40:06;9.60;99.90
39665;DHT22;26679;50.872;4.332;2023-04-02T00:42:34;9.50;99.90
39665;DHT22;26679;50.872;4.332;2023-04-02T00:45:00;9.60;99.90
39665;DHT22;26679;50.872;4.332;2023-04-02T00:47:30;9.50;99.90
39665;DHT22;26679;50.872;4.332;2023-04-02T00:50:39;9.60;99.90
39665;DHT22;26679;50.872;4.332;2023-04-02T00:52:47;9.60;99.90
39665;DHT22;26679;50.872;4.332;2023-04-02T00:55:21;9.50;99.90
39665;DHT22;26679;50.872;4.332;2023-04-02T00:57:49;9.30;99.90
39665;DHT22;26679;50.872;4.332;2023-04-02T01:00:22;9.30;99.90
39665;DHT22;26679;50.872;4.332;2023-04-02T01:05:26;9.30;99.90
39665;DHT22;26679;50.872;4.332;2023-04-02T01:08:06;9.20;99.90
39665;DHT22;26679;50.872;4.332;2023-04-02T01:15:38;9.20;99.90
39665;DHT22;26679;50.872;4.332;2023-04-02T01:23:19;9.00;99.90
39665;DHT22;26679;50.872;4.332;2023-04-02T01:30:39;9.20;99.90
39665;DHT22;26679;50.872;4.332;2023-04-02T01:33:06;9.20;99.90
39665;DHT22;26679;50.872;4.332;2023-04-02T01:35:32;9.20;99.90
39665;DHT22;26679;50.872;4.332;2023-04-02T01:38:06;9.20;99.90
39665;DHT22;26679;50.872;4.332;2023-04-02T01:40:38;9.10;99.90
39665;DHT22;26679;50.872;4.332;2023-04-02T01:45:36;9.10;99.90
39665;DHT22;26679;50.872;4.332;2023-04-02T01:48:05;9.00;99.90
39665;DHT22;26679;50.872;4.332;2023-04-02T01:50:35;8.90;99.90
39665;DHT22;26679;50.872;4.332;2023-04-02T01:53:02;9.00;99.90
39665;DHT22;26679;50.872;4.332;2023-04-02T01:55:50;9.10;99.90
39665;DHT22;26679;50.872;4.332;2023-04-02T01:58:16;9.00;99.90
39665;DHT22;26679;50.872;4.332;2023-04-02T02:00:48;9.00;99.90
39665;DHT22;26679;50.872;4.332;2023-04-02T02:03:15;9.00;99.90
39665;DHT22;26679;50.872;4.332;2023-04-02T02:05:41;8.90;99.90
39665;DHT22;26679;50.872;4.332;2023-04-02T02:08:07;8.90;99.90
39665;DHT22;26679;50.872;4.332;2023-04-02T02:10:38;8.70;99.90
39665;DHT22;26679;50.872;4.332;2023-04-02T02:13:04;8.70;99.90
39665;DHT22;26679;50.872;4.332;2023-04-02T02:15:30;8.60;99.90
39665;DHT22;26679;50.872;4.332;2023-04-02T02:17:57;8.60;99.90
39665;DHT22;26679;50.872;4.332;2023-04-02T02:20:23;8.70;99.90
39665;DHT22;26679;50.872;4.332;2023-04-02T02:22:50;8.80;99.90
39665;DHT22;26679;50.872;4.332;2023-04-02T02:25:17;8.70;99.90
39665;DHT22;26679;50.872;4.332;2023-04-02T02:27:44;8.70;99.90
39665;DHT22;26679;50.872;4.332;2023-04-02T02:35:31;8.70;99.90
39665;DHT22;26679;50.872;4.332;2023-04-02T02:38:10;8.70;99.90
39665;DHT22;26679;50.872;4.332;2023-04-02T02:40:37;8.80;99.90
39665;DHT22;26679;50.872;4.332;2023-04-02T02:43:05;8.70;99.90
39665;DHT22;26679;50.872;4.332;2023-04-02T02:45:34;8.60;99.90
39665;DHT22;26679;50.872;4.332;2023-04-02T02:48:01;8.60;99.90
39665;DHT22;26679;50.872;4.332;2023-04-02T02:50:28;8.60;99.90
39665;DHT22;26679;50.872;4.332;2023-04-02T02:53:03;8.60;99.90
39665;DHT22;26679;50.872;4.332;2023-04-02T02:55:29;8.30;99.90
39665;DHT22;26679;50.872;4.332;2023-04-02T02:58:01;8.30;99.90
39665;DHT22;26679;50.872;4.332;2023-04-02T03:00:29;8.30;99.90
39665;DHT22;26679;50.872;4.332;2023-04-02T03:02:54;8.40;99.90
39665;DHT22;26679;50.872;4.332;2023-04-02T03:05:21;8.40;99.90
39665;DHT22;26679;50.872;4.332;2023-04-02T03:07:51;8.30;99.90
39665;DHT22;26679;50.872;4.332;2023-04-02T03:15:32;8.20;99.90
39665;DHT22;26679;50.872;4.332;2023-04-02T03:18:01;8.30;99.90
39665;DHT22;26679;50.872;4.332;2023-04-02T03:28:34;8.20;99.90
39665;DHT22;26679;50.872;4.332;2023-04-02T03:31:08;8.30;99.90
39665;DHT22;26679;50.872;4.332;2023-04-02T03:33:39;8.40;99.90
39665;DHT22;26679;50.872;4.332;2023-04-02T03:36:39;8.50;99.90
39665;DHT22;26679;50.872;4.332;2023-04-02T03:39:07;8.30;99.90
39665;DHT22;26679;50.872;4.332;2023-04-02T03:41:40;8.30;99.90
39665;DHT22;26679;50.872;4.332;2023-04-02T03:46:45;8.00;99.90
39665;DHT22;26679;50.872;4.332;2023-04-02T03:49:12;8.10;99.90
39665;DHT22;26679;50.872;4.332;2023-04-02T03:51:45;8.10;99.90
39665;DHT22;26679;50.872;4.332;2023-04-02T03:54:15;8.30;99.90
39665;DHT22;26679;50.872;4.332;2023-04-02T03:56:41;8.30;99.90
39665;DHT22;26679;50.872;4.332;2023-04-02T03:59:13;8.20;99.90
39665;DHT22;26679;50.872;4.332;2023-04-02T04:01:42;8.10;99.90
39665;DHT22;26679;50.872;4.332;2023-04-02T04:04:12;7.90;99.90
39665;DHT22;26679;50.872;4.332;2023-04-02T04:06:41;7.90;99.90
39665;DHT22;26679;50.872;4.332;2023-04-02T04:09:08;7.90;99.90
39665;DHT22;26679;50.872;4.332;2023-04-02T04:11:35;7.90;99.90
39665;DHT22;26679;50.872;4.332;2023-04-02T04:14:06;8.10;99.90
39665;DHT22;26679;50.872;4.332;2023-04-02T04:19:16;8.20;99.90
39665;DHT22;26679;50.872;4.332;2023-04-02T04:21:44;9.20;99.90
39665;DHT22;26679;50.872;4.332;2023-04-02T04:24:21;8.10;99.90
39665;DHT22;26679;50.872;4.332;2023-04-02T04:26:54;8.10;99.90
39665;DHT22;26679;50.872;4.332;2023-04-02T04:32:08;8.20;99.90
39665;DHT22;26679;50.872;4.332;2023-04-02T04:34:41;8.20;99.90
39665;DHT22;26679;50.872;4.332;2023-04-02T04:39:51;7.80;99.90
39665;DHT22;26679;50.872;4.332;2023-04-02T04:42:20;7.90;99.90
39665;DHT22;26679;50.872;4.332;2023-04-02T04:45:07;7.80;99.90
39665;DHT22;26679;50.872;4.332;2023-04-02T04:47:36;7.70;99.90
39665;DHT22;26679;50.872;4.332;2023-04-02T04:50:07;7.50;99.90
39665;DHT22;26679;50.872;4.332;2023-04-02T04:52:37;7.70;99.90
39665;DHT22;26679;50.872;4.332;2023-04-02T04:55:17;7.80;99.90
39665;DHT22;26679;50.872;4.332;2023-04-02T04:57:46;8.00;99.90
39665;DHT22;26679;50.872;4.332;2023-04-02T05:00:22;8.10;99.90
39665;DHT22;26679;50.872;4.332;2023-04-02T05:02:53;8.10;99.90
39665;DHT22;26679;50.872;4.332;2023-04-02T05:05:23;8.10;99.90
39665;DHT22;26679;50.872;4.332;2023-04-02T05:07:50;8.20;99.90
39665;DHT22;26679;50.872;4.332;2023-04-02T05:10:40;8.30;99.90
39665;DHT22;26679;50.872;4.332;2023-04-02T05:13:10;8.10;99.90
39665;DHT22;26679;50.872;4.332;2023-04-02T05:15:49;8.20;99.90
39665;DHT22;26679;50.872;4.332;2023-04-02T05:21:02;8.20;99.90
39665;DHT22;26679;50.872;4.332;2023-04-02T05:23:35;8.30;99.90
39665;DHT22;26679;50.872;4.332;2023-04-02T05:26:05;8.40;99.90
39665;DHT22;26679;50.872;4.332;2023-04-02T05:31:10;8.40;99.90
39665;DHT22;26679;50.872;4.332;2023-04-02T05:33:36;8.20;99.90
39665;DHT22;26679;50.872;4.332;2023-04-02T05:36:07;8.10;99.90
39665;DHT22;26679;50.872;4.332;2023-04-02T05:38:34;8.20;99.90
39665;DHT22;26679;50.872;4.332;2023-04-02T05:41:02;8.10;99.90
39665;DHT22;26679;50.872;4.332;2023-04-02T05:43:29;8.10;99.90
39665;DHT22;26679;50.872;4.332;2023-04-02T05:45:56;8.20;99.90
39665;DHT22;26679;50.872;4.332;2023-04-02T05:51:00;8.10;99.90
39665;DHT22;26679;50.872;4.332;2023-04-02T05:53:27;7.80;99.90
39665;DHT22;26679;50.872;4.332;2023-04-02T05:58:32;7.60;99.90
39665;DHT22;26679;50.872;4.332;2023-04-02T06:06:05;7.70;99.90
39665;DHT22;26679;50.872;4.332;2023-04-02T06:08:35;7.70;99.90
39665;DHT22;26679;50.872;4.332;2023-04-02T06:13:30;7.70;99.90
39665;DHT22;26679;50.872;4.332;2023-04-02T06:15:56;7.50;99.90
39665;DHT22;26679;50.872;4.332;2023-04-02T06:18:23;7.50;99.90
39665;DHT22;26679;50.872;4.332;2023-04-02T06:20:49;7.50;99.90
39665;DHT22;26679;50.872;4.332;2023-04-02T06:31:11;8.10;99.90
39665;DHT22;26679;50.872;4.332;2023-04-02T06:33:38;8.10;99.90
39665;DHT22;26679;50.872;4.332;2023-04-02T06:36:03;8.10;99.90
39665;DHT22;26679;50.872;4.332;2023-04-02T06:38:30;8.20;99.90
39665;DHT22;26679;50.872;4.332;2023-04-02T06:41:01;8.10;99.90
39665;DHT22;26679;50.872;4.332;2023-04-02T06:45:59;8.00;99.90
39665;DHT22;26679;50.872;4.332;2023-04-02T06:48:25;8.10;99.90
39665;DHT22;26679;50.872;4.332;2023-04-02T06:50:53;8.20;99.90
39665;DHT22;26679;50.872;4.332;2023-04-02T06:55:57;7.70;99.90
39665;DHT22;26679;50.872;4.332;2023-04-02T06:58:25;7.60;99.90
39665;DHT22;26679;50.872;4.332;2023-04-02T07:00:51;7.60;99.90
39665;DHT22;26679;50.872;4.332;2023-04-02T07:05:49;7.80;99.90
39665;DHT22;26679;50.872;4.332;2023-04-02T07:08:15;8.10;99.90
39665;DHT22;26679;50.872;4.332;2023-04-02T07:10:41;7.90;99.90
39665;DHT22;26679;50.872;4.332;2023-04-02T07:13:11;7.80;99.90
39665;DHT22;26679;50.872;4.332;2023-04-02T07:15:38;7.70;99.90
39665;DHT22;26679;50.872;4.332;2023-04-02T07:18:03;7.80;99.90
39665;DHT22;26679;50.872;4.332;2023-04-02T07:20:31;8.00;99.90
39665;DHT22;26679;50.872;4.332;2023-04-02T07:22:57;7.70;99.90
39665;DHT22;26679;50.872;4.332;2023-04-02T07:25:23;7.60;99.90
39665;DHT22;26679;50.872;4.332;2023-04-02T07:27:49;7.80;99.90
39665;DHT22;26679;50.872;4.332;2023-04-02T07:30:14;7.80;99.90
39665;DHT22;26679;50.872;4.332;2023-04-02T07:32:40;7.70;99.90
39665;DHT22;26679;50.872;4.332;2023-04-02T07:35:06;7.60;99.90
39665;DHT22;26679;50.872;4.332;2023-04-02T07:37:32;7.70;99.90
39665;DHT22;26679;50.872;4.332;2023-04-02T07:39:57;8.00;99.90
39665;DHT22;26679;50.872;4.332;2023-04-02T07:42:23;8.10;99.90
39665;DHT22;26679;50.872;4.332;2023-04-02T07:44:48;8.20;99.90
39665;DHT22;26679;50.872;4.332;2023-04-02T07:47:15;8.50;99.90
39665;DHT22;26679;50.872;4.332;2023-04-02T07:49:41;8.20;99.90
39665;DHT22;26679;50.872;4.332;2023-04-02T07:52:06;8.10;99.90
39665;DHT22;26679;50.872;4.332;2023-04-02T07:54:32;7.80;99.90
39665;DHT22;26679;50.872;4.332;2023-04-02T07:56:57;7.80;99.90
39665;DHT22;26679;50.872;4.332;2023-04-02T07:59:23;7.60;99.90
39665;DHT22;26679;50.872;4.332;2023-04-02T08:01:49;7.40;99.90
39665;DHT22;26679;50.872;4.332;2023-04-02T08:04:16;7.70;99.90
39665;DHT22;26679;50.872;4.332;2023-04-02T08:06:42;7.60;99.90
39665;DHT22;26679;50.872;4.332;2023-04-02T08:09:08;7.70;99.90
39665;DHT22;26679;50.872;4.332;2023-04-02T08:11:33;7.80;99.90
39665;DHT22;26679;50.872;4.332;2023-04-02T08:13:59;7.90;99.90
39665;DHT22;26679;50.872;4.332;2023-04-02T08:16:24;8.00;99.90
39665;DHT22;26679;50.872;4.332;2023-04-02T08:18:50;8.20;99.90
39665;DHT22;26679;50.872;4.332;2023-04-02T08:21:16;8.20;99.90
39665;DHT22;26679;50.872;4.332;2023-04-02T08:23:41;8.10;99.90
39665;DHT22;26679;50.872;4.332;2023-04-02T08:26:07;8.00;99.90
39665;DHT22;26679;50.872;4.332;2023-04-02T08:28:33;7.90;99.90
39665;DHT22;26679;50.872;4.332;2023-04-02T08:30:59;7.70;99.90
39665;DHT22;26679;50.872;4.332;2023-04-02T08:33:26;7.50;99.90
39665;DHT22;26679;50.872;4.332;2023-04-02T08:35:52;7.30;99.90
39665;DHT22;26679;50.872;4.332;2023-04-02T08:38:18;7.20;99.90
39665;DHT22;26679;50.872;4.332;2023-04-02T08:40:44;7.30;99.90
39665;DHT22;26679;50.872;4.332;2023-04-02T08:48:13;8.00;99.90
39665;DHT22;26679;50.872;4.332;2023-04-02T08:50:40;8.10;99.90
39665;DHT22;26679;50.872;4.332;2023-04-02T08:53:08;8.20;99.90
39665;DHT22;26679;50.872;4.332;2023-04-02T08:58:33;8.40;99.90
39665;DHT22;26679;50.872;4.332;2023-04-02T09:01:02;8.20;99.90
39665;DHT22;26679;50.872;4.332;2023-04-02T09:03:35;8.40;99.90
39665;DHT22;26679;50.872;4.332;2023-04-02T09:06:03;8.30;99.90
39665;DHT22;26679;50.872;4.332;2023-04-02T09:08:30;7.80;99.90
39665;DHT22;26679;50.872;4.332;2023-04-02T09:13:33;7.50;99.90
39665;DHT22;26679;50.872;4.332;2023-04-02T09:18:36;7.90;99.90
39665;DHT22;26679;50.872;4.332;2023-04-02T09:23:41;8.00;99.90
39665;DHT22;26679;50.872;4.332;2023-04-02T09:26:26;7.80;99.90
39665;DHT22;26679;50.872;4.332;2023-04-02T09:31:30;7.60;99.90
39665;DHT22;26679;50.872;4.332;2023-04-02T09:33:58;7.60;99.90
39665;DHT22;26679;50.872;4.332;2023-04-02T09:36:26;7.90;99.90
39665;DHT22;26679;50.872;4.332;2023-04-02T09:38:56;8.30;99.90
39665;DHT22;26679;50.872;4.332;2023-04-02T09:41:22;8.00;99.90
39665;DHT22;26679;50.872;4.332;2023-04-02T09:43:51;8.60;99.90
39665;DHT22;26679;50.872;4.332;2023-04-02T09:46:35;8.00;99.90
39665;DHT22;26679;50.872;4.332;2023-04-02T09:49:01;7.40;99.90
39665;DHT22;26679;50.872;4.332;2023-04-02T09:51:27;8.90;99.90
39665;DHT22;26679;50.872;4.332;2023-04-02T09:56:28;7.40;99.90
39665;DHT22;26679;50.872;4.332;2023-04-02T10:01:43;7.20;99.90
39665;DHT22;26679;50.872;4.332;2023-04-02T10:06:48;7.40;99.90
39665;DHT22;26679;50.872;4.332;2023-04-02T10:09:35;7.50;99.90
39665;DHT22;26679;50.872;4.332;2023-04-02T10:12:02;7.60;99.90
39665;DHT22;26679;50.872;4.332;2023-04-02T10:14:34;8.40;99.90
39665;DHT22;26679;50.872;4.332;2023-04-02T10:17:03;6.80;99.90
39665;DHT22;26679;50.872;4.332;2023-04-02T10:19:38;9.20;99.90
39665;DHT22;26679;50.872;4.332;2023-04-02T10:22:12;7.80;99.90
39665;DHT22;26679;50.872;4.332;2023-04-02T10:24:39;7.90;99.90
39665;DHT22;26679;50.872;4.332;2023-04-02T10:34:51;7.60;99.90
39665;DHT22;26679;50.872;4.332;2023-04-02T10:40:00;7.40;99.90
39665;DHT22;26679;50.872;4.332;2023-04-02T10:42:35;7.50;99.90
39665;DHT22;26679;50.872;4.332;2023-04-02T10:47:59;9.60;99.90
39665;DHT22;26679;50.872;4.332;2023-04-02T10:53:13;8.40;99.90
39665;DHT22;26679;50.872;4.332;2023-04-02T10:55:42;8.60;99.90
39665;DHT22;26679;50.872;4.332;2023-04-02T10:58:15;8.70;99.90
39665;DHT22;26679;50.872;4.332;2023-04-02T11:00:43;8.90;99.90
39665;DHT22;26679;50.872;4.332;2023-04-02T11:03:12;8.60;99.90
39665;DHT22;26679;50.872;4.332;2023-04-02T11:10:34;9.10;99.90
39665;DHT22;26679;50.872;4.332;2023-04-02T11:13:10;9.10;99.90
39665;DHT22;26679;50.872;4.332;2023-04-02T11:15:36;9.20;99.90
39665;DHT22;26679;50.872;4.332;2023-04-02T11:18:02;9.40;99.90
39665;DHT22;26679;50.872;4.332;2023-04-02T11:23:11;9.40;99.90
39665;DHT22;26679;50.872;4.332;2023-04-02T11:25:40;9.30;99.90
39665;DHT22;26679;50.872;4.332;2023-04-02T11:30:44;8.80;99.90
39665;DHT22;26679;50.872;4.332;2023-04-02T11:35:46;8.70;99.90
39665;DHT22;26679;50.872;4.332;2023-04-02T11:40:58;8.60;99.90
39665;DHT22;26679;50.872;4.332;2023-04-02T11:46:04;8.80;99.90
39665;DHT22;26679;50.872;4.332;2023-04-02T11:48:35;9.00;99.90
39665;DHT22;26679;50.872;4.332;2023-04-02T11:51:10;9.20;99.90
39665;DHT22;26679;50.872;4.332;2023-04-02T11:53:36;9.20;99.90
39665;DHT22;26679;50.872;4.332;2023-04-02T11:56:07;9.30;99.90
39665;DHT22;26679;50.872;4.332;2023-04-02T12:11:38;8.70;99.90
39665;DHT22;26679;50.872;4.332;2023-04-02T12:16:40;6.50;99.90
39665;DHT22;26679;50.872;4.332;2023-04-02T12:19:07;7.80;99.90
39665;DHT22;26679;50.872;4.332;2023-04-02T12:21:32;8.60;99.90
39665;DHT22;26679;50.872;4.332;2023-04-02T12:23:58;8.10;99.90
39665;DHT22;26679;50.872;4.332;2023-04-02T12:31:42;8.60;99.90
39665;DHT22;26679;50.872;4.332;2023-04-02T12:34:12;8.40;99.90
39665;DHT22;26679;50.872;4.332;2023-04-02T12:39:19;8.60;99.90
39665;DHT22;26679;50.872;4.332;2023-04-02T12:41:45;8.60;99.90
39665;DHT22;26679;50.872;4.332;2023-04-02T12:44:29;8.50;99.90
39665;DHT22;26679;50.872;4.332;2023-04-02T12:46:55;8.40;99.90
39665;DHT22;26679;50.872;4.332;2023-04-02T12:51:47;8.80;99.90
39665;DHT22;26679;50.872;4.332;2023-04-02T12:54:14;9.00;99.90
39665;DHT22;26679;50.872;4.332;2023-04-02T12:56:41;9.00;99.90
39665;DHT22;26679;50.872;4.332;2023-04-02T13:04:22;9.30;99.90
39665;DHT22;26679;50.872;4.332;2023-04-02T13:06:48;9.00;99.90
39665;DHT22;26679;50.872;4.332;2023-04-02T13:09:29;8.70;99.90
39665;DHT22;26679;50.872;4.332;2023-04-02T13:11:55;8.70;99.90
39665;DHT22;26679;50.872;4.332;2023-04-02T13:14:21;8.90;99.90
39665;DHT22;26679;50.872;4.332;2023-04-02T13:16:48;9.00;99.90
39665;DHT22;26679;50.872;4.332;2023-04-02T13:21:50;9.10;99.90
39665;DHT22;26679;50.872;4.332;2023-04-02T13:24:18;9.10;99.90
39665;DHT22;26679;50.872;4.332;2023-04-02T13:26:43;9.20;99.90
39665;DHT22;26679;50.872;4.332;2023-04-02T13:31:46;9.50;99.90
39665;DHT22;26679;50.872;4.332;2023-04-02T13:34:11;9.70;99.90
39665;DHT22;26679;50.872;4.332;2023-04-02T13:36:37;9.90;99.90
39665;DHT22;26679;50.872;4.332;2023-04-02T13:39:02;9.80;99.90
39665;DHT22;26679;50.872;4.332;2023-04-02T13:41:30;9.70;99.90
39665;DHT22;26679;50.872;4.332;2023-04-02T13:43:57;9.20;99.90
39665;DHT22;26679;50.872;4.332;2023-04-02T13:46:26;8.70;99.90
39665;DHT22;26679;50.872;4.332;2023-04-02T13:48:52;8.40;99.90
39665;DHT22;26679;50.872;4.332;2023-04-02T13:51:18;8.40;99.90
39665;DHT22;26679;50.872;4.332;2023-04-02T13:53:45;8.70;99.90
39665;DHT22;26679;50.872;4.332;2023-04-02T13:56:11;8.60;99.90
39665;DHT22;26679;50.872;4.332;2023-04-02T13:58:37;8.70;99.90
39665;DHT22;26679;50.872;4.332;2023-04-02T14:01:03;8.80;99.90
39665;DHT22;26679;50.872;4.332;2023-04-02T14:03:28;8.40;99.90
39665;DHT22;26679;50.872;4.332;2023-04-02T14:08:42;8.30;99.90
39665;DHT22;26679;50.872;4.332;2023-04-02T14:13:56;8.00;99.90
39665;DHT22;26679;50.872;4.332;2023-04-02T14:26:31;8.90;99.90
39665;DHT22;26679;50.872;4.332;2023-04-02T14:29:25;9.00;99.90
39665;DHT22;26679;50.872;4.332;2023-04-02T14:31:54;9.00;99.90
39665;DHT22;26679;50.872;4.332;2023-04-02T14:44:41;8.50;99.90
39665;DHT22;26679;50.872;4.332;2023-04-02T14:47:14;8.70;99.90
39665;DHT22;26679;50.872;4.332;2023-04-02T14:49:41;8.50;99.90
39665;DHT22;26679;50.872;4.332;2023-04-02T14:52:15;8.70;99.90
39665;DHT22;26679;50.872;4.332;2023-04-02T14:59:42;8.20;99.90
39665;DHT22;26679;50.872;4.332;2023-04-02T15:02:17;8.30;99.90
39665;DHT22;26679;50.872;4.332;2023-04-02T15:05:08;8.10;99.90
39665;DHT22;26679;50.872;4.332;2023-04-02T15:07:37;8.20;99.90
39665;DHT22;26679;50.872;4.332;2023-04-02T15:10:14;8.30;99.90
39665;DHT22;26679;50.872;4.332;2023-04-02T15:12:41;8.10;99.90
39665;DHT22;26679;50.872;4.332;2023-04-02T15:20:17;7.70;99.90
39665;DHT22;26679;50.872;4.332;2023-04-02T15:22:52;8.00;99.90
39665;DHT22;26679;50.872;4.332;2023-04-02T15:30:33;8.10;99.90
39665;DHT22;26679;50.872;4.332;2023-04-02T15:35:48;8.30;99.90
39665;DHT22;26679;50.872;4.332;2023-04-02T15:38:59;8.10;99.90
39665;DHT22;26679;50.872;4.332;2023-04-02T15:41:12;7.80;99.90
39665;DHT22;26679;50.872;4.332;2023-04-02T15:56:25;7.90;99.90
39665;DHT22;26679;50.872;4.332;2023-04-02T16:11:38;8.50;99.90
39665;DHT22;26679;50.872;4.332;2023-04-02T16:16:40;8.00;99.90
39665;DHT22;26679;50.872;4.332;2023-04-02T16:24:23;7.90;99.90
39665;DHT22;26679;50.872;4.332;2023-04-02T16:32:07;7.70;99.90
39665;DHT22;26679;50.872;4.332;2023-04-02T16:52:31;7.60;99.90
39665;DHT22;26679;50.872;4.332;2023-04-02T17:08:23;8.20;99.90
39665;DHT22;26679;50.872;4.332;2023-04-02T17:15:42;8.50;99.90
39665;DHT22;26679;50.872;4.332;2023-04-02T17:18:13;8.60;99.90
39665;DHT22;26679;50.872;4.332;2023-04-02T17:20:40;8.80;99.90
39665;DHT22;26679;50.872;4.332;2023-04-02T17:23:08;8.70;99.90
39665;DHT22;26679;50.872;4.332;2023-04-02T17:25:35;8.70;99.90
39665;DHT22;26679;50.872;4.332;2023-04-02T17:28:01;8.80;99.90
39665;DHT22;26679;50.872;4.332;2023-04-02T17:30:34;8.60;99.90
39665;DHT22;26679;50.872;4.332;2023-04-02T17:33:03;8.40;99.90
39665;DHT22;26679;50.872;4.332;2023-04-02T17:35:40;8.00;99.90
39665;DHT22;26679;50.872;4.332;2023-04-02T17:38:10;7.90;99.90
39665;DHT22;26679;50.872;4.332;2023-04-02T17:48:13;7.90;99.90
39665;DHT22;26679;50.872;4.332;2023-04-02T17:50:44;8.10;99.90
39665;DHT22;26679;50.872;4.332;2023-04-02T18:01:16;8.00;99.90
39665;DHT22;26679;50.872;4.332;2023-04-02T18:06:31;8.00;99.90
39665;DHT22;26679;50.872;4.332;2023-04-02T18:11:39;7.60;99.90
39665;DHT22;26679;50.872;4.332;2023-04-02T18:19:19;7.50;99.90
39665;DHT22;26679;50.872;4.332;2023-04-02T18:21:50;7.40;99.90
39665;DHT22;26679;50.872;4.332;2023-04-02T18:24:20;7.30;99.90
39665;DHT22;26679;50.872;4.332;2023-04-02T18:45:50;7.30;99.90
39665;DHT22;26679;50.872;4.332;2023-04-02T18:53:31;7.50;99.90
39665;DHT22;26679;50.872;4.332;2023-04-02T19:37:58;7.80;99.90
39665;DHT22;26679;50.872;4.332;2023-04-02T19:45:51;7.90;99.90
39665;DHT22;26679;50.872;4.332;2023-04-02T19:58:40;7.80;99.90
39665;DHT22;26679;50.872;4.332;2023-04-02T20:14:27;7.80;99.90
39665;DHT22;26679;50.872;4.332;2023-04-02T20:16:52;6.40;99.90
39665;DHT22;26679;50.872;4.332;2023-04-02T20:19:23;8.00;99.90
39665;DHT22;26679;50.872;4.332;2023-04-02T20:21:49;7.90;99.90
39665;DHT22;26679;50.872;4.332;2023-04-02T20:24:14;7.90;99.90
39665;DHT22;26679;50.872;4.332;2023-04-02T20:26:40;8.00;99.90
39665;DHT22;26679;50.872;4.332;2023-04-02T20:29:06;7.80;99.90
39665;DHT22;26679;50.872;4.332;2023-04-02T20:31:35;7.80;99.90
39665;DHT22;26679;50.872;4.332;2023-04-02T20:34:01;7.70;99.90
39665;DHT22;26679;50.872;4.332;2023-04-02T20:36:29;7.80;99.90
39665;DHT22;26679;50.872;4.332;2023-04-02T20:38:55;7.60;99.90
39665;DHT22;26679;50.872;4.332;2023-04-02T20:41:21;7.70;99.90
39665;DHT22;26679;50.872;4.332;2023-04-02T20:43:47;7.70;99.90
39665;DHT22;26679;50.872;4.332;2023-04-02T20:46:14;7.90;99.90
39665;DHT22;26679;50.872;4.332;2023-04-02T20:48:40;7.90;99.90
39665;DHT22;26679;50.872;4.332;2023-04-02T20:51:06;8.00;99.90
39665;DHT22;26679;50.872;4.332;2023-04-02T20:53:33;8.10;99.90
39665;DHT22;26679;50.872;4.332;2023-04-02T20:58:36;8.10;99.90
39665;DHT22;26679;50.872;4.332;2023-04-02T21:04:17;8.00;99.90
39665;DHT22;26679;50.872;4.332;2023-04-02T21:06:42;7.80;99.90
39665;DHT22;26679;50.872;4.332;2023-04-02T21:09:15;8.10;99.90
39665;DHT22;26679;50.872;4.332;2023-04-02T21:11:41;7.70;99.90
39665;DHT22;26679;50.872;4.332;2023-04-02T21:14:07;7.30;99.90
39665;DHT22;26679;50.872;4.332;2023-04-02T21:16:32;8.50;99.90
39665;DHT22;26679;50.872;4.332;2023-04-02T21:18:59;8.40;99.90
39665;DHT22;26679;50.872;4.332;2023-04-02T21:21:25;7.40;99.90
39665;DHT22;26679;50.872;4.332;2023-04-02T21:23:52;7.40;99.90
39665;DHT22;26679;50.872;4.332;2023-04-02T21:26:18;8.10;99.90
39665;DHT22;26679;50.872;4.332;2023-04-02T21:28:44;7.30;99.90
39665;DHT22;26679;50.872;4.332;2023-04-02T21:31:11;8.20;99.90
39665;DHT22;26679;50.872;4.332;2023-04-02T21:33:40;7.30;99.90
39665;DHT22;26679;50.872;4.332;2023-04-02T21:36:07;8.30;99.90
39665;DHT22;26679;50.872;4.332;2023-04-02T21:38:33;7.10;99.90
39665;DHT22;26679;50.872;4.332;2023-04-02T21:41:09;7.00;99.90
39665;DHT22;26679;50.872;4.332;2023-04-02T21:43:36;7.00;99.90
39665;DHT22;26679;50.872;4.332;2023-04-02T21:46:01;7.00;99.90
39665;DHT22;26679;50.872;4.332;2023-04-02T21:48:33;7.00;99.90
39665;DHT22;26679;50.872;4.332;2023-04-02T21:53:36;6.80;99.90
39665;DHT22;26679;50.872;4.332;2023-04-02T21:56:03;6.80;99.90
39665;DHT22;26679;50.872;4.332;2023-04-02T21:58:28;6.40;99.90
39665;DHT22;26679;50.872;4.332;2023-04-02T22:00:54;5.90;99.90
39665;DHT22;26679;50.872;4.332;2023-04-02T22:03:23;6.90;99.90
39665;DHT22;26679;50.872;4.332;2023-04-02T22:05:49;6.80;99.90
39665;DHT22;26679;50.872;4.332;2023-04-02T22:08:23;8.30;99.90
39665;DHT22;26679;50.872;4.332;2023-04-02T22:10:49;6.60;99.90
39665;DHT22;26679;50.872;4.332;2023-04-02T22:13:14;6.70;99.90
39665;DHT22;26679;50.872;4.332;2023-04-02T22:15:40;6.70;99.90
39665;DHT22;26679;50.872;4.332;2023-04-02T22:18:06;6.70;99.90
39665;DHT22;26679;50.872;4.332;2023-04-02T22:20:31;6.70;99.90
39665;DHT22;26679;50.872;4.332;2023-04-02T22:22:57;7.20;99.90
39665;DHT22;26679;50.872;4.332;2023-04-02T22:25:24;6.10;99.90
39665;DHT22;26679;50.872;4.332;2023-04-02T22:27:50;6.70;99.90
39665;DHT22;26679;50.872;4.332;2023-04-02T22:30:16;6.80;99.90
39665;DHT22;26679;50.872;4.332;2023-04-02T22:32:42;6.70;99.90
39665;DHT22;26679;50.872;4.332;2023-04-02T22:35:07;8.20;99.90
39665;DHT22;26679;50.872;4.332;2023-04-02T22:37:33;6.60;99.90
39665;DHT22;26679;50.872;4.332;2023-04-02T22:39:58;6.40;99.90
39665;DHT22;26679;50.872;4.332;2023-04-02T22:42:25;6.40;99.90
39665;DHT22;26679;50.872;4.332;2023-04-02T22:44:51;6.30;99.90
39665;DHT22;26679;50.872;4.332;2023-04-02T22:47:17;6.60;99.90
39665;DHT22;26679;50.872;4.332;2023-04-02T22:49:42;6.30;99.90
39665;DHT22;26679;50.872;4.332;2023-04-02T22:52:08;6.50;99.90
39665;DHT22;26679;50.872;4.332;2023-04-02T22:54:33;6.30;99.90
39665;DHT22;26679;50.872;4.332;2023-04-02T22:56:59;6.40;99.90
39665;DHT22;26679;50.872;4.332;2023-04-02T22:59:25;6.30;99.90
39665;DHT22;26679;50.872;4.332;2023-04-02T23:01:50;6.20;99.90
39665;DHT22;26679;50.872;4.332;2023-04-02T23:04:16;6.30;99.90
39665;DHT22;26679;50.872;4.332;2023-04-02T23:06:42;6.10;99.90